Time;durP1;ratioP1;P1;durP2;ratioP2;P2;SDS_P1;SDS_P2;PMS_P1;PMS_P2;Temp;Humidity;BMP_temperature;BMP_pressure;BME280_temperature;BME280_humidity;BME280_pressure;Samples;Min_cycle;Max_cycle;Signal;HPM_P1;HPM_P2
2021/07/26 00:01:28;;;;;;;;;11.00;11.00;;;;;;;;3561535;39;113423;-83
2021/07/26 00:03:55;;;;;;;;;13.67;13.67;;;;;;;;3559137;39;113927;-82
2021/07/26 00:06:23;;;;;;;;;15.00;15.00;;;;;;;;3560662;39;112121;-82
2021/07/26 00:08:49;;;;;;;;;25.75;21.25;;;;;;;;3562091;39;113202;-82
2021/07/26 00:11:16;;;;;;;;;35.25;31.75;;;;;;;;3560283;39;111927;-84
2021/07/26 00:13:42;;;;;;;;;31.25;28.50;;;;;;;;3560402;39;113464;-82
2021/07/26 00:16:09;;;;;;;;;33.50;29.50;;;;;;;;3559554;39;114010;-82
2021/07/26 00:18:36;;;;;;;;;35.50;31.00;;;;;;;;3560441;39;112472;-81
2021/07/26 00:21:03;;;;;;;;;29.75;28.75;;;;;;;;3559350;39;113273;-81
2021/07/26 00:23:31;;;;;;;;;23.67;22.00;;;;;;;;3560470;39;113910;-81
2021/07/26 00:25:57;;;;;;;;;20.33;20.33;;;;;;;;3559412;39;111970;-80
2021/07/26 00:28:24;;;;;;;;;22.50;22.50;;;;;;;;3560869;39;113915;-81
2021/07/26 00:30:50;;;;;;;;;24.00;22.50;;;;;;;;3561729;39;114114;-81
2021/07/26 00:33:47;;;;;;;;;21.00;18.00;;;;;;;;3559971;39;112276;-81
2021/07/26 00:36:13;;;;;;;;;16.33;13.67;;;;;;;;3549432;39;112998;-81
2021/07/26 00:38:41;;;;;;;;;23.00;20.00;;;;;;;;3558854;39;111946;-81
2021/07/26 00:41:09;;;;;;;;;13.33;13.00;;;;;;;;3560542;39;113530;-83
2021/07/26 00:43:35;;;;;;;;;12.33;12.00;;;;;;;;3558870;39;113891;-83
2021/07/26 00:46:02;;;;;;;;;16.00;13.00;;;;;;;;3561048;39;111984;-83
2021/07/26 00:48:28;;;;;;;;;15.00;14.33;;;;;;;;3560966;39;113272;-82
2021/07/26 00:50:55;;;;;;;;;13.33;12.00;;;;;;;;3561516;39;113804;-82
2021/07/26 00:53:21;;;;;;;;;17.67;15.00;;;;;;;;3560467;39;113360;-82
2021/07/26 00:55:50;;;;;;;;;18.00;18.00;;;;;;;;3559342;39;113986;-83
2021/07/26 00:58:16;;;;;;;;;16.67;15.00;;;;;;;;3560326;39;113516;-82
2021/07/26 01:00:43;;;;;;;;;14.67;14.67;;;;;;;;3560136;39;113830;-82
2021/07/26 01:03:09;;;;;;;;;14.67;13.00;;;;;;;;3558832;39;113776;-82
2021/07/26 01:05:36;;;;;;;;;11.67;11.00;;;;;;;;3564223;39;113199;-81
2021/07/26 01:08:03;;;;;;;;;21.00;16.00;;;;;;;;3560927;39;113253;-82
2021/07/26 01:10:29;;;;;;;;;15.33;15.00;;;;;;;;3558870;39;114001;-82
2021/07/26 01:13:00;;;;;;;;;19.67;18.00;;;;;;;;3564461;39;112127;-82
2021/07/26 01:15:26;;;;;;;;;17.67;16.67;;;;;;;;3558320;39;113879;-82
2021/07/26 01:18:24;;;;;;;;;22.75;20.50;;;;;;;;3559400;39;111924;-83
2021/07/26 01:20:52;;;;;;;;;20.67;20.00;;;;;;;;3561859;39;113397;-83
2021/07/26 01:23:19;;;;;;;;;19.00;19.00;;;;;;;;3559290;39;113890;-82
2021/07/26 01:25:46;;;;;;;;;18.33;16.00;;;;;;;;3559242;39;112327;-81
2021/07/26 01:28:14;;;;;;;;;20.00;18.00;;;;;;;;3559232;39;113329;-80
2021/07/26 01:30:40;;;;;;;;;16.33;14.33;;;;;;;;3559332;39;113855;-81
2021/07/26 01:33:08;;;;;;;;;16.67;15.00;;;;;;;;3559699;39;112457;-81
2021/07/26 01:35:34;;;;;;;;;23.25;18.75;;;;;;;;3560634;39;113226;-80
2021/07/26 01:38:03;;;;;;;;;30.50;28.50;;;;;;;;3560126;39;111917;-80
2021/07/26 01:40:30;;;;;;;;;44.00;35.50;;;;;;;;3558296;39;113260;-82
2021/07/26 01:43:01;;;;;;;;;43.75;35.00;;;;;;;;3557875;39;114262;-82
2021/07/26 01:45:28;;;;;;;;;36.25;31.00;;;;;;;;3558269;39;112210;-82
2021/07/26 01:48:00;;;;;;;;;41.50;34.25;;;;;;;;3558330;39;113858;-81
2021/07/26 01:50:28;;;;;;;;;43.25;35.00;;;;;;;;3557621;39;113832;-80
2021/07/26 01:52:54;;;;;;;;;33.75;29.25;;;;;;;;3559857;39;112156;-81
2021/07/26 01:55:22;;;;;;;;;33.50;30.50;;;;;;;;3558481;39;113270;-81
2021/07/26 01:57:49;;;;;;;;;24.00;22.25;;;;;;;;3561578;39;113923;-82
2021/07/26 02:00:18;;;;;;;;;22.75;17.25;;;;;;;;3559945;39;113970;-81
2021/07/26 02:02:45;;;;;;;;;17.33;15.00;;;;;;;;3559561;39;114699;-79
2021/07/26 02:05:12;;;;;;;;;19.75;19.00;;;;;;;;3555702;39;112162;-79
2021/07/26 02:07:39;;;;;;;;;19.00;15.67;;;;;;;;3560229;39;113523;-79
2021/07/26 02:10:06;;;;;;;;;17.33;15.33;;;;;;;;3560007;39;113974;-80
2021/07/26 02:12:34;;;;;;;;;22.50;21.75;;;;;;;;3559662;39;111810;-81
2021/07/26 02:15:00;;;;;;;;;30.00;28.75;;;;;;;;3562129;39;113246;-81
2021/07/26 02:17:27;;;;;;;;;24.25;22.00;;;;;;;;3557552;39;114125;-80
2021/07/26 02:19:54;;;;;;;;;23.75;19.75;;;;;;;;3562464;39;111996;-81
2021/07/26 02:22:20;;;;;;;;;16.00;15.00;;;;;;;;3557965;39;113832;-81
2021/07/26 02:24:47;;;;;;;;;17.00;14.00;;;;;;;;3559093;39;111822;-80
2021/07/26 02:27:14;;;;;;;;;16.33;13.00;;;;;;;;3558627;39;113254;-80
2021/07/26 02:29:42;;;;;;;;;15.00;14.00;;;;;;;;3558347;39;113761;-81
2021/07/26 02:32:09;;;;;;;;;14.67;13.00;;;;;;;;3558705;39;112081;-81
2021/07/26 02:34:36;;;;;;;;;13.67;13.00;;;;;;;;3558227;39;113280;-81
2021/07/26 02:37:02;;;;;;;;;12.33;12.33;;;;;;;;3559136;39;113648;-82
2021/07/26 02:39:29;;;;;;;;;15.33;15.00;;;;;;;;3557833;39;111745;-80
2021/07/26 02:41:55;;;;;;;;;27.75;25.25;;;;;;;;3560049;39;113238;-81
2021/07/26 02:44:22;;;;;;;;;25.00;23.25;;;;;;;;3560189;39;112081;-80
2021/07/26 02:46:50;;;;;;;;;58.25;47.00;;;;;;;;3559436;39;113479;-80
2021/07/26 02:49:16;;;;;;;;;40.00;32.50;;;;;;;;3557068;39;113216;-82
2021/07/26 02:51:43;;;;;;;;;30.50;29.00;;;;;;;;3559979;39;111902;-81
2021/07/26 02:54:09;;;;;;;;;22.00;20.50;;;;;;;;3560011;39;113493;-81
2021/07/26 02:56:36;;;;;;;;;25.00;20.50;;;;;;;;3559030;39;114042;-80
2021/07/26 02:59:03;;;;;;;;;11.00;11.00;;;;;;;;3560523;39;112133;-80
2021/07/26 03:01:32;;;;;;;;;22.00;15.25;;;;;;;;3561312;39;113259;-83
2021/07/26 03:04:00;;;;;;;;;17.00;15.00;;;;;;;;3559143;39;111765;-82
2021/07/26 03:06:27;;;;;;;;;16.25;16.00;;;;;;;;3559127;39;113317;-81
2021/07/26 03:08:53;;;;;;;;;20.75;18.75;;;;;;;;3559948;39;113917;-83
2021/07/26 03:11:20;;;;;;;;;21.00;20.00;;;;;;;;3559037;39;112186;-82
2021/07/26 03:13:46;;;;;;;;;21.00;19.75;;;;;;;;3559893;39;113300;-82
2021/07/26 03:16:15;;;;;;;;;18.25;16.25;;;;;;;;3559132;39;113796;-82
2021/07/26 03:18:42;;;;;;;;;23.25;20.00;;;;;;;;3559720;39;111867;-82
2021/07/26 03:21:13;;;;;;;;;20.75;17.75;;;;;;;;3559849;39;113394;-81
2021/07/26 03:23:39;;;;;;;;;21.00;20.00;;;;;;;;3563149;39;114063;-76
2021/07/26 03:26:07;;;;;;;;;22.25;19.00;;;;;;;;3559286;39;113172;-76
2021/07/26 09:14:33;;;;;;;;;13.00;13.00;;;;;;;;3579553;39;111909;-76
2021/07/26 09:17:00;;;;;;;;;12.67;9.67;;;;;;;;3565256;39;113954;-85
2021/07/26 09:19:28;;;;;;;;;14.33;11.33;;;;;;;;3568309;39;111753;-73
2021/07/26 09:21:56;;;;;;;;;12.00;10.00;;;;;;;;3567290;39;113316;-74
2021/07/26 09:24:29;;;;;;;;;14.67;10.67;;;;;;;;3566835;39;113887;-74
2021/07/26 09:27:08;;;;;;;;;11.00;9.67;;;;;;;;3567486;39;111986;-74
2021/07/26 09:29:36;;;;;;;;;11.00;11.00;;;;;;;;3567278;39;113783;-74
2021/07/26 09:32:05;;;;;;;;;10.67;10.00;;;;;;;;3565785;39;114138;-74
2021/07/26 09:34:34;;;;;;;;;13.67;11.00;;;;;;;;3567733;39;111912;-75
2021/07/26 09:37:01;;;;;;;;;10.00;10.00;;;;;;;;3566180;39;113972;-75
2021/07/26 09:39:29;;;;;;;;;13.33;11.00;;;;;;;;3564691;39;112480;-75
2021/07/26 09:41:56;;;;;;;;;10.00;10.00;;;;;;;;3565149;39;113243;-74
2021/07/26 09:44:24;;;;;;;;;11.67;11.00;;;;;;;;3566030;39;113991;-74
2021/07/26 09:46:53;;;;;;;;;14.00;12.67;;;;;;;;3562401;39;112013;-76
2021/07/26 09:49:22;;;;;;;;;11.33;11.00;;;;;;;;3567406;39;113308;-75
2021/07/26 09:52:04;;;;;;;;;13.00;11.00;;;;;;;;3566333;39;114146;-74
2021/07/26 09:54:41;;;;;;;;;12.00;10.67;;;;;;;;3565768;39;112490;-75
2021/07/26 09:57:14;;;;;;;;;10.67;10.33;;;;;;;;3564348;39;112417;-73
2021/07/26 09:59:42;;;;;;;;;11.33;10.00;;;;;;;;3565474;39;111932;-73
2021/07/26 10:02:11;;;;;;;;;11.33;9.67;;;;;;;;3565666;39;113261;-74
2021/07/26 10:04:38;;;;;;;;;11.33;9.67;;;;;;;;3565174;39;114396;-79
2021/07/26 10:07:05;;;;;;;;;10.33;10.00;;;;;;;;3534772;39;111889;-75
2021/07/26 10:09:31;;;;;;;;;14.33;12.00;;;;;;;;3535084;39;113604;-76
2021/07/26 10:11:58;;;;;;;;;13.33;9.33;;;;;;;;3535154;39;114033;-75
2021/07/26 10:14:24;;;;;;;;;11.00;11.00;;;;;;;;3534887;39;112152;-74
2021/07/26 10:16:51;;;;;;;;;15.00;12.00;;;;;;;;3536556;39;113605;-74
2021/07/26 10:19:19;;;;;;;;;15.00;11.00;;;;;;;;3537553;39;114289;-73
2021/07/26 10:21:46;;;;;;;;;12.33;11.00;;;;;;;;3535448;39;113369;-73
2021/07/26 10:24:13;;;;;;;;;14.00;12.33;;;;;;;;3532445;39;114108;-74
2021/07/26 10:26:42;;;;;;;;;14.00;11.33;;;;;;;;3527815;39;111796;-73
2021/07/26 10:29:08;;;;;;;;;12.67;11.67;;;;;;;;3529543;39;113212;-73
2021/07/26 10:31:36;;;;;;;;;11.67;11.00;;;;;;;;3527700;39;114373;-74
2021/07/26 10:34:03;;;;;;;;;12.00;11.00;;;;;;;;3524889;39;111898;-73
2021/07/26 10:36:44;;;;;;;;;15.67;15.00;;;;;;;;3527368;39;113695;-73
2021/07/26 10:39:12;;;;;;;;;12.33;12.33;;;;;;;;3526793;39;113880;-74
2021/07/26 10:41:58;;;;;;;;;10.00;10.00;;;;;;;;3527968;39;112601;-73
2021/07/26 10:44:42;;;;;;;;;12.00;10.00;;;;;;;;3523525;39;113777;-74
2021/07/26 10:47:16;;;;;;;;;12.33;8.00;;;;;;;;3524816;39;112312;-73
2021/07/26 10:50:04;;;;;;;;;5.00;4.33;;;;;;;;3525855;39;113267;-76
2021/07/26 10:52:43;;;;;;;;;13.00;12.00;;;;;;;;3522233;39;114385;-73
2021/07/26 10:55:11;;;;;;;;;50.75;41.75;;;;;;;;3524406;39;112632;-75
2021/07/26 10:57:41;;;;;;;;;13.33;12.33;;;;;;;;3526667;39;113762;-74
2021/07/26 11:00:18;;;;;;;;;18.33;16.00;;;;;;;;3524774;39;114840;-74
2021/07/26 11:02:45;;;;;;;;;12.00;10.67;;;;;;;;3528043;39;112285;-73
2021/07/26 11:05:30;;;;;;;;;12.00;12.00;;;;;;;;3531248;39;113183;-73
2021/07/26 11:08:12;;;;;;;;;18.33;14.67;;;;;;;;3528058;39;112082;-73
2021/07/26 11:10:46;;;;;;;;;11.00;10.00;;;;;;;;3527428;39;113457;-74
2021/07/26 11:13:13;;;;;;;;;12.00;10.00;;;;;;;;3528515;39;113835;-74
2021/07/26 11:15:44;;;;;;;;;9.00;9.00;;;;;;;;3525889;39;111876;-74
2021/07/26 11:18:32;;;;;;;;;12.00;10.33;;;;;;;;3529196;39;113144;-76
2021/07/26 11:21:00;;;;;;;;;10.00;8.00;;;;;;;;3525536;39;113811;-73
2021/07/26 11:23:50;;;;;;;;;11.00;11.00;;;;;;;;3524984;39;112186;-76
2021/07/26 11:26:22;;;;;;;;;11.00;9.00;;;;;;;;3519569;39;113191;-75
2021/07/26 11:28:49;;;;;;;;;8.67;7.00;;;;;;;;3529953;39;112587;-77
2021/07/26 11:31:26;;;;;;;;;11.00;10.00;;;;;;;;3528476;39;113272;-73
2021/07/26 11:33:53;;;;;;;;;9.00;9.00;;;;;;;;3526640;39;113892;-73
2021/07/26 11:36:20;;;;;;;;;11.00;10.00;;;;;;;;3528243;39;112390;-74
2021/07/26 11:38:59;;;;;;;;;13.33;11.33;;;;;;;;3527764;39;113060;-79
2021/07/26 11:41:28;;;;;;;;;12.33;10.00;;;;;;;;3525390;39;113880;-75
2021/07/26 11:43:54;;;;;;;;;9.67;9.67;;;;;;;;3527791;39;112434;-74
2021/07/26 11:46:21;;;;;;;;;9.67;9.67;;;;;;;;3527047;39;113284;-74
2021/07/26 11:48:52;;;;;;;;;11.67;9.67;;;;;;;;3528697;39;113752;-73
2021/07/26 11:51:28;;;;;;;;;14.33;11.00;;;;;;;;3528366;39;113854;-72
2021/07/26 11:53:59;;;;;;;;;14.67;11.67;;;;;;;;3526614;39;114523;-73
2021/07/26 11:56:28;;;;;;;;;11.00;11.00;;;;;;;;3525575;39;112134;-72
2021/07/26 11:59:12;;;;;;;;;13.33;11.33;;;;;;;;3525848;39;113203;-74
2021/07/26 12:01:38;;;;;;;;;14.00;12.00;;;;;;;;3526917;39;113833;-72
2021/07/26 12:04:05;;;;;;;;;11.67;10.67;;;;;;;;3528906;39;112292;-74
2021/07/26 12:06:46;;;;;;;;;12.33;11.67;;;;;;;;3528013;39;113257;-74
2021/07/26 12:09:16;;;;;;;;;12.00;11.00;;;;;;;;3524583;39;114541;-72
2021/07/26 12:11:43;;;;;;;;;13.33;10.67;;;;;;;;3529424;39;111910;-74
2021/07/26 12:14:22;;;;;;;;;13.00;13.00;;;;;;;;3525594;39;114326;-74
2021/07/26 12:16:56;;;;;;;;;11.67;10.33;;;;;;;;3527582;39;112849;-73
2021/07/26 12:19:23;;;;;;;;;12.00;10.67;;;;;;;;3529158;39;113372;-74
2021/07/26 12:21:49;;;;;;;;;11.33;10.00;;;;;;;;3523359;39;113921;-74
2021/07/26 12:24:16;;;;;;;;;15.00;13.00;;;;;;;;3527041;39;112156;-74
2021/07/26 12:26:57;;;;;;;;;12.00;11.67;;;;;;;;3527549;39;113311;-75
2021/07/26 12:29:26;;;;;;;;;9.00;9.00;;;;;;;;3525981;39;114609;-76
2021/07/26 12:32:03;;;;;;;;;10.33;10.00;;;;;;;;3527089;39;111888;-74
2021/07/26 12:34:30;;;;;;;;;13.00;12.00;;;;;;;;3528015;39;113257;-74
2021/07/26 12:37:07;;;;;;;;;11.00;9.33;;;;;;;;3528058;39;112024;-74
2021/07/26 12:39:38;;;;;;;;;14.67;11.33;;;;;;;;3525410;39;113213;-74
2021/07/26 12:42:19;;;;;;;;;13.67;13.33;;;;;;;;3526563;39;113891;-75
2021/07/26 12:44:47;;;;;;;;;18.67;17.00;;;;;;;;3526724;39;112126;-78
2021/07/26 12:47:33;;;;;;;;;18.00;16.00;;;;;;;;3527125;39;113345;-80
2021/07/26 12:49:59;;;;;;;;;10.00;8.00;;;;;;;;3524386;39;114313;-79
2021/07/26 12:52:26;;;;;;;;;14.33;12.67;;;;;;;;3529017;39;111894;-77
2021/07/26 12:54:53;;;;;;;;;15.00;13.33;;;;;;;;3527933;39;113501;-77
2021/07/26 12:57:20;;;;;;;;;13.67;12.67;;;;;;;;3528999;39;114284;-78
2021/07/26 12:59:48;;;;;;;;;12.33;10.00;;;;;;;;3528623;39;112958;-78
2021/07/26 13:02:14;;;;;;;;;10.00;10.00;;;;;;;;3527725;39;114039;-77
2021/07/26 13:04:41;;;;;;;;;9.33;8.00;;;;;;;;3527399;39;112367;-75
2021/07/26 13:07:08;;;;;;;;;18.00;14.67;;;;;;;;3527713;39;113641;-78
2021/07/26 13:09:34;;;;;;;;;12.00;9.00;;;;;;;;3528344;39;113821;-72
2021/07/26 13:12:01;;;;;;;;;13.00;11.33;;;;;;;;3527692;39;112185;-74
2021/07/26 13:14:27;;;;;;;;;16.67;12.00;;;;;;;;3529136;39;113230;-74
2021/07/26 13:16:55;;;;;;;;;12.67;11.00;;;;;;;;3525117;39;113777;-73
2021/07/26 13:19:22;;;;;;;;;11.67;11.67;;;;;;;;3534827;39;111975;-73
2021/07/26 13:21:51;;;;;;;;;14.00;12.00;;;;;;;;3530742;39;114005;-72
2021/07/26 13:24:17;;;;;;;;;10.33;9.33;;;;;;;;3532211;39;112447;-72
2021/07/26 13:26:44;;;;;;;;;14.67;13.00;;;;;;;;3527881;39;113297;-73
2021/07/26 13:29:10;;;;;;;;;10.67;9.00;;;;;;;;3527717;39;114331;-74
2021/07/26 13:31:38;;;;;;;;;15.33;13.67;;;;;;;;3528491;39;111933;-72
2021/07/26 13:34:06;;;;;;;;;10.67;9.33;;;;;;;;3527752;39;113619;-79
2021/07/26 13:36:32;;;;;;;;;10.33;8.33;;;;;;;;3528987;39;113792;-83
2021/07/26 13:38:59;;;;;;;;;10.00;8.00;;;;;;;;3530739;39;112236;-80
2021/07/26 13:41:26;;;;;;;;;10.00;7.67;;;;;;;;3530070;39;113936;-77
2021/07/26 13:43:55;;;;;;;;;10.67;8.33;;;;;;;;3532553;39;111972;-81
2021/07/26 13:46:21;;;;;;;;;8.00;8.00;;;;;;;;3531104;39;113240;-80
2021/07/26 13:48:48;;;;;;;;;11.67;8.00;;;;;;;;3529924;39;113994;-79
2021/07/26 13:51:17;;;;;;;;;13.00;10.00;;;;;;;;3530933;39;112171;-77
2021/07/26 13:53:44;;;;;;;;;13.67;10.67;;;;;;;;3528138;39;113375;-84
2021/07/26 13:56:11;;;;;;;;;6.33;6.00;;;;;;;;3524508;39;113886;-81
2021/07/26 13:58:38;;;;;;;;;7.33;7.33;;;;;;;;3531521;39;111830;-78
2021/07/26 14:01:05;;;;;;;;;6.67;5.00;;;;;;;;3531941;39;112436;-78
2021/07/26 14:03:33;;;;;;;;;6.33;5.00;;;;;;;;3530376;39;111805;-78
2021/07/26 14:06:02;;;;;;;;;5.67;5.67;;;;;;;;3534218;39;113796;-79
2021/07/26 14:08:30;;;;;;;;;8.67;6.00;;;;;;;;3532827;39;113986;-79
2021/07/26 14:10:57;;;;;;;;;9.67;5.33;;;;;;;;3533816;39;111874;-76
2021/07/26 14:13:23;;;;;;;;;8.00;5.00;;;;;;;;3533095;39;113968;-80
2021/07/26 14:15:50;;;;;;;;;10.00;7.00;;;;;;;;3533385;39;114153;-79
2021/07/26 14:18:17;;;;;;;;;8.00;6.33;;;;;;;;3528524;39;113421;-79
2021/07/26 14:20:43;;;;;;;;;8.00;6.67;;;;;;;;3529383;39;113271;-78
2021/07/26 14:23:10;;;;;;;;;7.33;4.33;;;;;;;;3531429;39;113949;-78
2021/07/26 14:25:39;;;;;;;;;12.00;6.00;;;;;;;;3529302;39;113356;-76
2021/07/26 14:28:06;;;;;;;;;5.50;4.75;;;;;;;;3528887;39;114409;-76
2021/07/26 14:30:33;;;;;;;;;7.00;4.25;;;;;;;;3528444;39;111923;-75
2021/07/26 14:32:59;;;;;;;;;5.00;5.00;;;;;;;;3528775;39;113191;-75
2021/07/26 14:35:26;;;;;;;;;8.00;5.33;;;;;;;;3529789;39;114196;-76
2021/07/26 14:37:52;;;;;;;;;5.67;5.33;;;;;;;;3528465;39;111938;-77
2021/07/26 14:40:19;;;;;;;;;5.67;5.00;;;;;;;;3529926;39;114247;-81
2021/07/26 14:42:47;;;;;;;;;3.67;2.00;;;;;;;;3528473;39;114379;-79
2021/07/26 14:45:14;;;;;;;;;7.67;6.67;;;;;;;;3530178;39;112013;-85
2021/07/26 14:47:41;;;;;;;;;9.67;6.00;;;;;;;;3528816;39;113978;-81
2021/07/26 14:50:07;;;;;;;;;8.00;5.00;;;;;;;;3530369;39;113009;-86
2021/07/26 14:52:34;;;;;;;;;6.67;5.33;;;;;;;;3528475;39;113422;-83
2021/07/26 14:55:01;;;;;;;;;6.00;5.75;;;;;;;;3527152;39;113806;-81
2021/07/26 14:57:27;;;;;;;;;6.33;6.00;;;;;;;;3528175;39;111842;-77
2021/07/26 14:59:55;;;;;;;;;7.67;7.00;;;;;;;;3525564;39;113332;-76
2021/07/26 15:02:22;;;;;;;;;8.33;5.33;;;;;;;;3528696;39;113826;-77
2021/07/26 15:04:48;;;;;;;;;8.00;6.67;;;;;;;;3528425;39;112182;-83
2021/07/26 15:07:15;;;;;;;;;7.67;7.00;;;;;;;;3531995;39;113239;-83
2021/07/26 15:09:41;;;;;;;;;6.67;5.00;;;;;;;;3529111;39;112683;-76
2021/07/26 15:12:08;;;;;;;;;7.67;5.00;;;;;;;;3528712;39;113457;-81
2021/07/26 15:14:35;;;;;;;;;8.67;6.00;;;;;;;;3528470;39;114444;-80
2021/07/26 15:17:03;;;;;;;;;11.00;8.00;;;;;;;;3529604;39;111918;-78
2021/07/26 15:19:29;;;;;;;;;8.67;5.00;;;;;;;;3528913;39;113353;-83
2021/07/26 15:21:56;;;;;;;;;8.33;6.00;;;;;;;;3529643;39;113810;-85
2021/07/26 15:24:23;;;;;;;;;5.67;4.00;;;;;;;;3528582;39;112531;-79
2021/07/26 15:26:50;;;;;;;;;8.33;5.00;;;;;;;;3526823;39;112732;-81
2021/07/26 15:29:16;;;;;;;;;11.33;6.00;;;;;;;;3530499;39;113868;-79
2021/07/26 15:31:43;;;;;;;;;8.67;6.67;;;;;;;;3529765;39;113541;-76
2021/07/26 15:34:11;;;;;;;;;5.00;4.00;;;;;;;;3528778;39;113888;-79
2021/07/26 15:36:37;;;;;;;;;9.00;6.33;;;;;;;;3529313;39;112490;-77
2021/07/26 15:39:04;;;;;;;;;9.33;6.00;;;;;;;;3503795;39;113288;-76
2021/07/26 15:41:31;;;;;;;;;7.00;5.00;;;;;;;;3458795;39;124426;-81
2021/07/26 15:43:57;;;;;;;;;6.00;5.00;;;;;;;;3528677;39;113259;-81
2021/07/26 15:46:25;;;;;;;;;8.00;6.00;;;;;;;;3529250;39;113277;-78
2021/07/26 15:48:51;;;;;;;;;6.67;5.33;;;;;;;;3530649;39;114483;-78
2021/07/26 15:51:19;;;;;;;;;3.33;1.33;;;;;;;;3530202;39;113014;-79
2021/07/26 15:53:46;;;;;;;;;7.33;6.00;;;;;;;;3527735;39;114254;-81
2021/07/26 15:56:13;;;;;;;;;8.67;7.33;;;;;;;;3529026;39;112263;-81
2021/07/26 15:58:39;;;;;;;;;10.33;8.00;;;;;;;;3531930;39;113829;-81
2021/07/26 16:01:09;;;;;;;;;8.00;6.00;;;;;;;;3529764;39;114497;-84
2021/07/26 16:03:35;;;;;;;;;8.00;7.00;;;;;;;;3530140;39;111785;-84
2021/07/26 16:06:02;;;;;;;;;6.67;4.67;;;;;;;;3531023;39;113350;-84
2021/07/26 16:08:30;;;;;;;;;8.33;6.33;;;;;;;;3529265;39;114109;-85
2021/07/26 16:10:57;;;;;;;;;7.33;6.00;;;;;;;;3530213;39;112061;-86
2021/07/26 16:13:23;;;;;;;;;6.00;6.00;;;;;;;;3528037;39;113904;-78
2021/07/26 16:15:50;;;;;;;;;9.67;7.33;;;;;;;;3528989;39;112269;-80
2021/07/26 16:18:16;;;;;;;;;8.00;7.00;;;;;;;;3526868;39;113331;-80
2021/07/26 16:20:44;;;;;;;;;8.00;7.00;;;;;;;;3527512;39;114354;-80
2021/07/26 16:23:11;;;;;;;;;9.33;8.33;;;;;;;;3526949;39;112758;-81
2021/07/26 16:25:39;;;;;;;;;9.67;6.00;;;;;;;;3527952;39;113551;-81
2021/07/26 16:28:06;;;;;;;;;10.67;8.00;;;;;;;;3527374;39;113822;-80
2021/07/26 16:30:33;;;;;;;;;10.67;9.00;;;;;;;;3527810;39;112013;-80
2021/07/26 16:32:59;;;;;;;;;9.33;8.00;;;;;;;;3532031;39;113355;-81
2021/07/26 16:35:26;;;;;;;;;10.00;7.33;;;;;;;;3528699;39;111922;-80
2021/07/26 16:37:52;;;;;;;;;6.67;6.00;;;;;;;;3530168;39;113499;-81
2021/07/26 16:40:19;;;;;;;;;9.00;7.00;;;;;;;;3528147;39;114361;-80
2021/07/26 16:42:47;;;;;;;;;7.00;7.00;;;;;;;;3529793;39;112413;-80
2021/07/26 16:45:14;;;;;;;;;7.67;7.67;;;;;;;;3527955;39;113333;-79
2021/07/26 16:47:40;;;;;;;;;8.00;7.00;;;;;;;;3529515;39;113938;-80
2021/07/26 16:50:07;;;;;;;;;8.33;6.33;;;;;;;;3528595;39;112202;-78
2021/07/26 16:52:34;;;;;;;;;10.00;9.67;;;;;;;;3528795;39;113385;-79
2021/07/26 16:55:01;;;;;;;;;10.67;8.00;;;;;;;;3529962;39;114124;-80
2021/07/26 16:57:27;;;;;;;;;11.67;8.33;;;;;;;;3529846;39;113914;-79
2021/07/26 16:59:55;;;;;;;;;10.67;10.67;;;;;;;;3527505;39;113960;-80
2021/07/26 17:02:22;;;;;;;;;11.67;9.67;;;;;;;;3529859;39;111911;-79
2021/07/26 17:04:48;;;;;;;;;13.00;9.33;;;;;;;;3526001;39;113319;-81
2021/07/26 17:07:15;;;;;;;;;12.67;9.67;;;;;;;;3528938;39;113900;-80
2021/07/26 17:09:42;;;;;;;;;11.33;11.00;;;;;;;;3529727;39;112219;-79
2021/07/26 17:12:08;;;;;;;;;12.00;10.00;;;;;;;;3528223;39;113323;-81
2021/07/26 17:14:35;;;;;;;;;13.67;10.00;;;;;;;;3527324;39;113897;-80
2021/07/26 17:17:03;;;;;;;;;8.33;7.00;;;;;;;;3531121;39;111957;-80
2021/07/26 17:19:29;;;;;;;;;11.00;10.00;;;;;;;;3528639;39;113946;-80
2021/07/26 17:21:56;;;;;;;;;8.67;8.67;;;;;;;;3527904;39;112186;-80
2021/07/26 17:24:23;;;;;;;;;11.00;9.00;;;;;;;;3531709;39;112195;-80
2021/07/26 17:26:49;;;;;;;;;8.67;7.33;;;;;;;;3527298;39;113904;-79
2021/07/26 17:29:16;;;;;;;;;9.00;8.33;;;;;;;;3529732;39;111955;-80
2021/07/26 17:31:43;;;;;;;;;11.33;8.33;;;;;;;;3527966;39;113324;-80
2021/07/26 17:34:11;;;;;;;;;14.33;11.00;;;;;;;;3528878;39;113886;-80
2021/07/26 17:36:37;;;;;;;;;11.67;8.00;;;;;;;;3529735;39;112099;-80
2021/07/26 17:39:04;;;;;;;;;11.67;10.67;;;;;;;;3532423;39;113213;-81
2021/07/26 17:41:31;;;;;;;;;12.00;10.67;;;;;;;;3530327;39;112190;-81
2021/07/26 17:43:58;;;;;;;;;10.33;10.00;;;;;;;;3529760;39;113281;-80
2021/07/26 17:46:24;;;;;;;;;11.00;11.00;;;;;;;;3530397;39;114114;-80
2021/07/26 17:48:53;;;;;;;;;11.33;11.00;;;;;;;;3528995;39;112140;-80
2021/07/26 17:51:21;;;;;;;;;13.00;11.00;;;;;;;;3527310;39;113664;-80
2021/07/26 17:53:50;;;;;;;;;12.00;10.33;;;;;;;;3528467;39;113958;-81
2021/07/26 17:56:16;;;;;;;;;13.00;11.00;;;;;;;;3528835;39;112299;-80
2021/07/26 17:58:43;;;;;;;;;13.00;11.00;;;;;;;;3531428;39;113558;-79
2021/07/26 18:01:11;;;;;;;;;11.00;9.00;;;;;;;;3530201;39;112444;-80
2021/07/26 18:03:38;;;;;;;;;11.00;9.67;;;;;;;;3528788;39;113462;-81
2021/07/26 18:06:04;;;;;;;;;11.33;11.00;;;;;;;;3529535;39;113992;-80
2021/07/26 18:08:32;;;;;;;;;13.00;12.00;;;;;;;;3529913;39;112135;-81
2021/07/26 18:10:59;;;;;;;;;12.00;10.00;;;;;;;;3530527;39;113363;-81
2021/07/26 18:13:25;;;;;;;;;13.00;10.00;;;;;;;;3528823;39;114034;-79
2021/07/26 18:15:52;;;;;;;;;11.00;10.00;;;;;;;;3531123;39;112128;-79
2021/07/26 18:18:18;;;;;;;;;15.67;13.67;;;;;;;;3532709;39;113988;-82
2021/07/26 18:20:46;;;;;;;;;13.00;11.00;;;;;;;;3530350;39;113910;-79
2021/07/26 18:23:12;;;;;;;;;12.00;12.00;;;;;;;;3529590;39;113166;-87
2021/07/26 18:25:40;;;;;;;;;13.00;11.00;;;;;;;;3531941;39;114048;-86
2021/07/26 18:28:07;;;;;;;;;14.00;12.67;;;;;;;;3532749;39;111631;-85
2021/07/26 18:30:34;;;;;;;;;14.00;10.00;;;;;;;;3532115;39;112319;-80
2021/07/26 18:33:01;;;;;;;;;13.00;11.33;;;;;;;;3529861;39;113933;-83
2021/07/26 18:35:27;;;;;;;;;12.67;10.00;;;;;;;;3535347;39;111791;-82
2021/07/26 18:37:54;;;;;;;;;11.00;10.00;;;;;;;;3534306;39;112342;-80
2021/07/26 18:40:20;;;;;;;;;16.33;13.33;;;;;;;;3532006;39;113898;-79
2021/07/26 18:42:48;;;;;;;;;15.00;12.00;;;;;;;;3532626;39;111951;-78
2021/07/26 18:45:15;;;;;;;;;15.33;12.33;;;;;;;;3529744;39;113914;-80
2021/07/26 18:47:43;;;;;;;;;16.67;14.00;;;;;;;;3531289;39;112083;-77
2021/07/26 18:50:10;;;;;;;;;13.33;13.00;;;;;;;;3528368;39;113548;-76
2021/07/26 18:52:37;;;;;;;;;10.67;10.67;;;;;;;;3531278;39;114074;-89
2021/07/26 18:55:04;;;;;;;;;10.33;9.33;;;;;;;;3533865;39;111881;-89
2021/07/26 18:57:31;;;;;;;;;9.33;9.00;;;;;;;;3531735;39;113513;-86
2021/07/26 18:59:59;;;;;;;;;9.00;9.00;;;;;;;;3532453;39;113935;-88
2021/07/26 19:02:26;;;;;;;;;17.33;16.00;;;;;;;;3532676;39;111880;-87
2021/07/26 19:04:52;;;;;;;;;13.67;12.00;;;;;;;;3536584;39;114128;-90
2021/07/26 19:07:19;;;;;;;;;14.00;13.33;;;;;;;;3531001;39;111743;-91
2021/07/26 19:09:46;;;;;;;;;14.00;14.00;;;;;;;;3529070;39;112898;-89
2021/07/26 19:12:12;;;;;;;;;16.00;14.00;;;;;;;;3530636;39;114081;-82
2021/07/26 19:14:39;;;;;;;;;16.00;13.00;;;;;;;;3529959;39;111888;-85
2021/07/26 19:17:07;;;;;;;;;18.33;17.33;;;;;;;;3529797;39;114165;-79
2021/07/26 19:19:37;;;;;;;;;13.67;12.33;;;;;;;;3529373;39;114503;-84
2021/07/26 19:22:04;;;;;;;;;12.33;11.33;;;;;;;;3525274;39;112281;-88
2021/07/26 19:24:30;;;;;;;;;14.00;12.00;;;;;;;;3526263;39;113453;-82
2021/07/26 19:26:57;;;;;;;;;16.33;14.67;;;;;;;;3527981;39;114172;-85
2021/07/26 19:29:23;;;;;;;;;13.33;11.33;;;;;;;;3527337;39;114237;-82
2021/07/26 19:31:50;;;;;;;;;17.00;14.33;;;;;;;;3527812;39;112796;-83
2021/07/26 19:34:18;;;;;;;;;15.00;11.67;;;;;;;;3528256;39;112042;-84
2021/07/26 19:36:46;;;;;;;;;13.33;11.00;;;;;;;;3528025;39;112381;-84
2021/07/26 19:39:13;;;;;;;;;13.00;13.00;;;;;;;;3526274;39;114177;-88
2021/07/26 19:41:42;;;;;;;;;16.33;14.00;;;;;;;;3526428;39;111829;-85
2021/07/26 19:44:09;;;;;;;;;14.00;12.00;;;;;;;;3531293;39;113947;-84
2021/07/26 19:46:36;;;;;;;;;17.33;14.67;;;;;;;;3530474;39;112872;-85
2021/07/26 19:49:04;;;;;;;;;16.00;13.33;;;;;;;;3532845;39;112133;-86
2021/07/26 19:51:32;;;;;;;;;45.25;37.75;;;;;;;;3530691;39;113862;-80
2021/07/26 19:54:04;;;;;;;;;18.00;16.00;;;;;;;;3533030;39;112064;-81
2021/07/26 19:56:33;;;;;;;;;14.00;13.00;;;;;;;;3533256;39;113393;-86
2021/07/26 19:59:00;;;;;;;;;15.00;12.67;;;;;;;;3530534;39;113946;-80
2021/07/26 20:01:26;;;;;;;;;36.00;31.00;;;;;;;;3531488;39;111873;-82
2021/07/26 20:03:53;;;;;;;;;14.00;13.67;;;;;;;;3526615;39;113183;-81